EBAW/ANR METAR and TAF weather

Enter ICAO airport designator
Station Type Date Time Source
EBAW METAR 2020/01/23 08:50 UTC NOAA

EBAW 230850Z 09005KT 3500 BR BKN006 04/03 Q1033 TEMPO SCT006


Station Type Date Time Source
EBAW Decoded METAR 2020/01/23 08:50 UTC NOAA

Antwerpen / Deurne, Belgium (EBAW) 51-12N 004-28E 14M
Jan 23, 2020 - 03:50 AM EST / 2020.01.23 0850 UTC
Wind: from the E (090 degrees) at 6 MPH (5 KT):0
Visibility: 2 mile(s):0
Sky conditions: mostly cloudy
Weather: mist
Temperature: 39 F (4 C)
Dew Point: 37 F (3 C)
Relative Humidity: 93%
Pressure (altimeter): 30.50 in. Hg (1033 hPa)
ob: EBAW 230850Z 09005KT 3500 BR BKN006 04/03 Q1033 TEMPO SCT006
cycle: 9

Station Type Date Time Source
EBAW TAF 2019/07/25 18:27 UTC NOAA

TAF TAF EBAW 251700Z 2518/2606 11007KT CAVOK PROB30
TEMPO 2518/2520 VRB15G30KT 3500 SHRA TSRA

Example: see airport list